createdAt,value
2023-01-31T00:01:29.578Z,1.35
2023-01-31T00:04:13.503Z,1.80
2023-01-31T00:06:56.095Z,1.40
2023-01-31T00:09:38.709Z,1.25
2023-01-31T00:12:21.302Z,1.42
2023-01-31T00:15:04.215Z,1.50
2023-01-31T00:17:46.837Z,1.45
2023-01-31T00:20:30.873Z,1.63
2023-01-31T00:23:13.457Z,1.30
2023-01-31T00:25:56.059Z,1.52
2023-01-31T00:28:39.407Z,1.70
2023-01-31T00:31:23.171Z,1.25
2023-01-31T00:34:05.887Z,1.52
2023-01-31T00:36:49.843Z,1.23
2023-01-31T00:39:32.439Z,1.10
2023-01-31T00:42:14.993Z,1.23
2023-01-31T00:44:57.581Z,1.15
2023-01-31T00:47:40.427Z,1.30
2023-01-31T00:50:23.027Z,1.55
2023-01-31T00:53:06.945Z,1.30
2023-01-31T00:55:51.389Z,1.02
2023-01-31T00:58:35.043Z,0.95
2023-01-31T01:01:19.349Z,0.95
2023-01-31T01:04:02.471Z,1.15
2023-01-31T01:06:50.333Z,1.08
2023-01-31T01:09:34.937Z,0.88
2023-01-31T01:12:17.755Z,1.08
2023-01-31T01:15:00.343Z,0.90
2023-01-31T01:17:42.928Z,1.08
2023-01-31T01:20:25.601Z,1.00
2023-01-31T01:23:09.381Z,1.10
2023-01-31T01:25:53.357Z,1.00
2023-01-31T01:28:37.166Z,1.17
2023-01-31T01:31:20.999Z,1.00
2023-01-31T01:34:05.166Z,1.13
2023-01-31T01:36:48.251Z,1.02
2023-01-31T01:39:31.781Z,0.93
2023-01-31T01:42:19.679Z,1.10
2023-01-31T01:45:02.819Z,0.90
2023-01-31T01:47:47.797Z,0.90
2023-01-31T01:50:32.136Z,1.00
2023-01-31T01:53:17.292Z,1.45
2023-01-31T01:56:02.787Z,1.10
2023-01-31T01:58:49.329Z,1.10
2023-01-31T02:01:34.624Z,1.08
2023-01-31T02:04:24.348Z,1.27
2023-01-31T02:07:08.770Z,1.27
2023-01-31T02:09:54.367Z,1.17
2023-01-31T02:12:37.273Z,1.25
2023-01-31T02:15:22.424Z,1.05
2023-01-31T02:18:06.112Z,1.10
2023-01-31T02:21:07.938Z,1.38
2023-01-31T02:24:06.314Z,1.38
2023-01-31T02:27:16.072Z,1.50
2023-01-31T02:30:19.757Z,1.15
2023-01-31T02:33:13.241Z,1.30
2023-01-31T02:35:59.427Z,1.30
2023-01-31T02:38:58.928Z,1.40
2023-01-31T02:41:44.926Z,1.95
2023-01-31T02:44:47.415Z,1.58
2023-01-31T02:47:37.807Z,1.80
2023-01-31T02:50:25.744Z,1.63
2023-01-31T02:53:11.308Z,1.52
2023-01-31T02:56:14.497Z,1.88
2023-01-31T02:58:59.062Z,1.52
2023-01-31T03:01:44.645Z,1.92
2023-01-31T03:04:31.486Z,1.45
2023-01-31T03:07:16.901Z,1.50
2023-01-31T03:10:03.538Z,1.48
2023-01-31T03:12:52.012Z,1.35
2023-01-31T03:16:04.716Z,1.38
2023-01-31T03:18:50.525Z,1.10
2023-01-31T03:21:35.009Z,1.35
2023-01-31T03:24:20.356Z,1.33
2023-01-31T03:27:04.178Z,1.35
2023-01-31T03:29:46.977Z,1.23
2023-01-31T03:32:33.554Z,1.00
2023-01-31T03:35:16.809Z,1.10
2023-01-31T03:38:03.439Z,1.10
2023-01-31T03:40:54.119Z,1.45
2023-01-31T03:43:38.944Z,1.00
2023-01-31T03:46:23.898Z,0.80
2023-01-31T03:49:09.822Z,1.27
2023-01-31T03:51:55.202Z,1.10
2023-01-31T03:54:40.685Z,1.13
2023-01-31T03:57:25.775Z,1.08
2023-01-31T04:00:09.907Z,1.20
2023-01-31T04:03:05.639Z,1.08
2023-01-31T04:05:49.222Z,1.20
2023-01-31T04:08:32.802Z,1.20
2023-01-31T04:11:21.233Z,1.15
2023-01-31T04:14:05.486Z,1.30
2023-01-31T04:16:48.131Z,1.20
2023-01-31T04:19:30.832Z,1.40
2023-01-31T04:22:13.520Z,1.10
2023-01-31T04:24:56.154Z,1.25
2023-01-31T04:27:39.110Z,1.35
2023-01-31T04:30:23.347Z,1.70
2023-01-31T04:33:06.033Z,1.48
2023-01-31T04:35:48.660Z,1.42
2023-01-31T04:38:31.887Z,1.40
2023-01-31T04:41:14.585Z,1.20
2023-01-31T04:43:57.700Z,1.20
2023-01-31T04:46:41.786Z,1.40
2023-01-31T04:49:24.455Z,1.45
2023-01-31T04:52:07.417Z,1.27
2023-01-31T04:54:50.202Z,1.23
2023-01-31T04:57:32.904Z,1.42
2023-01-31T05:00:15.932Z,1.55
2023-01-31T05:03:01.178Z,1.40
2023-01-31T05:05:43.998Z,1.55
2023-01-31T05:08:26.619Z,1.27
2023-01-31T05:11:09.443Z,1.83
2023-01-31T05:13:52.069Z,1.95
2023-01-31T05:16:34.987Z,1.90
2023-01-31T05:19:19.011Z,1.67
2023-01-31T05:22:01.723Z,1.40
2023-01-31T05:24:44.539Z,1.80
2023-01-31T05:27:27.373Z,1.55
2023-01-31T05:30:11.038Z,1.85
2023-01-31T05:32:53.862Z,1.50
2023-01-31T05:35:39.299Z,1.48
2023-01-31T05:38:22.205Z,1.48
2023-01-31T05:41:05.035Z,1.38
2023-01-31T05:43:47.705Z,1.27
2023-01-31T05:46:30.351Z,1.67
2023-01-31T05:49:13.270Z,1.65
2023-01-31T05:51:57.324Z,1.33
2023-01-31T05:54:39.932Z,1.38
2023-01-31T05:57:22.569Z,1.25
2023-01-31T06:00:05.541Z,1.50
2023-01-31T06:02:57.739Z,1.50
2023-01-31T06:05:41.364Z,1.50
2023-01-31T06:08:25.397Z,1.20
2023-01-31T06:11:08.102Z,1.30
2023-01-31T06:13:50.800Z,1.52
2023-01-31T06:16:33.514Z,1.52
2023-01-31T06:19:16.224Z,1.58
2023-01-31T06:21:58.937Z,1.60
2023-01-31T06:24:42.990Z,1.73
2023-01-31T06:27:25.614Z,1.73
2023-01-31T06:30:09.088Z,1.27
2023-01-31T06:32:51.752Z,1.73
2023-01-31T06:35:34.445Z,1.23
2023-01-31T06:38:17.281Z,1.55
2023-01-31T06:41:01.314Z,1.75
2023-01-31T06:43:43.961Z,1.50
2023-01-31T06:46:26.793Z,1.58
2023-01-31T06:49:09.476Z,1.45
2023-01-31T06:51:52.344Z,1.52
2023-01-31T06:54:35.017Z,1.35
2023-01-31T06:57:19.157Z,1.70
2023-01-31T07:00:01.857Z,1.20
2023-01-31T07:02:44.491Z,1.60
2023-01-31T07:05:28.627Z,1.50
2023-01-31T07:08:11.331Z,1.80
2023-01-31T07:10:54.035Z,1.95
2023-01-31T07:13:38.069Z,1.95
2023-01-31T07:16:22.620Z,1.67
2023-01-31T07:19:05.357Z,1.52
2023-01-31T07:21:49.188Z,1.60
2023-01-31T07:24:32.365Z,2.05
2023-01-31T07:27:15.152Z,1.67
2023-01-31T07:29:59.264Z,1.20
2023-01-31T07:32:41.917Z,2.20
2023-01-31T07:35:24.623Z,1.95
2023-01-31T07:38:08.488Z,1.70
2023-01-31T07:40:52.492Z,2.05
2023-01-31T07:43:35.199Z,1.70
2023-01-31T07:46:19.288Z,1.52
2023-01-31T07:49:01.968Z,2.47
2023-01-31T07:51:44.667Z,2.00
2023-01-31T07:54:27.387Z,2.13
2023-01-31T07:57:10.132Z,2.20
2023-01-31T07:59:52.816Z,2.20
2023-01-31T08:02:54.336Z,1.85
2023-01-31T08:05:37.030Z,1.73
2023-01-31T08:08:19.703Z,2.22
2023-01-31T08:11:02.402Z,2.00
2023-01-31T08:13:46.721Z,2.13
2023-01-31T08:16:30.143Z,2.13
2023-01-31T08:19:14.443Z,2.45
2023-01-31T08:21:57.179Z,2.40
2023-01-31T08:24:39.875Z,2.50
2023-01-31T08:27:22.623Z,2.50
2023-01-31T08:30:06.026Z,2.17
2023-01-31T08:32:48.828Z,2.30
2023-01-31T08:35:32.889Z,2.22
2023-01-31T08:38:16.850Z,2.10
2023-01-31T08:40:59.669Z,2.35
2023-01-31T08:43:54.903Z,2.70
2023-01-31T08:46:39.334Z,2.42
2023-01-31T08:49:22.155Z,2.15
2023-01-31T08:52:06.273Z,2.40
2023-01-31T08:54:48.968Z,2.10
2023-01-31T08:57:31.747Z,2.47
2023-01-31T09:00:14.899Z,2.50
2023-01-31T09:02:58.185Z,2.40
2023-01-31T09:05:40.995Z,2.17
2023-01-31T09:08:25.088Z,1.80
2023-01-31T09:11:08.028Z,2.35
2023-01-31T09:13:51.951Z,1.98
2023-01-31T09:16:34.731Z,2.22
2023-01-31T09:19:17.422Z,2.30
2023-01-31T09:22:00.213Z,2.38
2023-01-31T09:24:46.081Z,2.58
2023-01-31T09:27:29.123Z,2.33
2023-01-31T09:30:12.457Z,2.95
2023-01-31T09:32:55.245Z,2.50
2023-01-31T09:35:38.171Z,2.33
2023-01-31T09:38:20.887Z,2.40
2023-01-31T09:41:06.673Z,2.17
2023-01-31T09:43:51.855Z,2.40
2023-01-31T09:46:37.557Z,2.10
2023-01-31T09:49:22.999Z,2.30
2023-01-31T09:52:05.950Z,2.15
2023-01-31T09:54:48.836Z,2.00
2023-01-31T09:57:38.345Z,2.20
2023-01-31T10:00:23.347Z,2.33
2023-01-31T10:03:19.441Z,2.25
2023-01-31T10:06:06.342Z,2.10
2023-01-31T10:08:51.634Z,2.38
2023-01-31T10:11:38.267Z,2.10
2023-01-31T10:14:27.295Z,2.00
2023-01-31T10:17:12.399Z,2.25
2023-01-31T10:19:57.846Z,2.08
2023-01-31T10:22:44.637Z,1.63
2023-01-31T10:25:29.034Z,1.60
2023-01-31T10:28:14.358Z,1.90
2023-01-31T10:31:01.249Z,1.80
2023-01-31T10:33:49.110Z,1.80
2023-01-31T10:36:34.550Z,1.90
2023-01-31T10:39:21.292Z,1.60
2023-01-31T10:42:09.983Z,1.70
2023-01-31T10:44:53.987Z,1.88
2023-01-31T10:47:39.140Z,1.90
2023-01-31T10:50:26.370Z,1.88
2023-01-31T10:53:21.414Z,1.88
2023-01-31T10:56:05.933Z,1.63
2023-01-31T10:58:48.737Z,1.65
2023-01-31T11:01:31.585Z,1.73
2023-01-31T11:04:26.980Z,1.48
2023-01-31T11:07:10.611Z,1.42
2023-01-31T11:09:54.627Z,1.80
2023-01-31T11:12:41.871Z,1.70
2023-01-31T11:15:26.023Z,1.85
2023-01-31T11:18:14.450Z,1.80
2023-01-31T11:20:59.865Z,1.80
2023-01-31T11:23:44.694Z,1.35
2023-01-31T11:26:30.213Z,1.40
2023-01-31T11:29:28.682Z,1.88
2023-01-31T11:32:18.768Z,1.52
2023-01-31T11:35:03.646Z,1.50
2023-01-31T11:37:54.234Z,1.60
2023-01-31T11:40:38.069Z,1.30
2023-01-31T11:43:26.025Z,1.40
2023-01-31T11:46:08.934Z,1.45
2023-01-31T11:48:51.926Z,1.23
2023-01-31T11:51:35.975Z,1.45
2023-01-31T11:54:22.982Z,1.15
2023-01-31T11:57:14.531Z,1.10
2023-01-31T11:59:59.399Z,1.20
2023-01-31T12:02:42.775Z,1.00
2023-01-31T12:05:31.775Z,1.08
2023-01-31T12:08:30.583Z,1.17
2023-01-31T12:11:27.801Z,0.82
2023-01-31T12:14:12.808Z,0.90
2023-01-31T12:16:56.810Z,0.82
2023-01-31T12:19:44.863Z,0.90
2023-01-31T12:22:31.354Z,0.90
2023-01-31T12:25:20.543Z,1.00
2023-01-31T12:28:11.463Z,0.85
2023-01-31T12:31:01.981Z,0.90
2023-01-31T12:33:52.754Z,0.90
2023-01-31T12:36:40.784Z,0.93
2023-01-31T12:39:34.358Z,0.77
2023-01-31T12:42:28.746Z,0.80
2023-01-31T12:45:22.766Z,0.52
2023-01-31T12:48:15.343Z,0.77
2023-01-31T12:51:01.657Z,0.73
2023-01-31T12:53:51.135Z,0.70
2023-01-31T12:56:48.787Z,0.70
2023-01-31T12:59:39.196Z,0.60
2023-01-31T13:02:39.795Z,0.75
2023-01-31T13:05:28.408Z,0.60
2023-01-31T13:08:17.717Z,0.50
2023-01-31T13:11:03.526Z,0.55
2023-01-31T13:13:49.120Z,0.75
2023-01-31T13:16:35.193Z,0.80
2023-01-31T13:19:23.225Z,0.70
2023-01-31T13:22:09.538Z,0.77
2023-01-31T13:24:55.000Z,0.77
2023-01-31T13:27:39.372Z,0.80
2023-01-31T13:30:24.740Z,1.00
2023-01-31T13:33:16.279Z,1.00
2023-01-31T13:36:08.409Z,0.90
2023-01-31T13:38:52.383Z,0.82
2023-01-31T13:41:35.579Z,1.42
2023-01-31T13:44:18.287Z,1.40
2023-01-31T13:47:03.677Z,1.30
2023-01-31T13:49:49.531Z,1.20
2023-01-31T13:52:35.124Z,1.50
2023-01-31T13:55:20.294Z,1.55
2023-01-31T13:58:04.963Z,1.45
2023-01-31T14:00:50.850Z,1.65
2023-01-31T14:03:53.547Z,1.40
2023-01-31T14:06:55.061Z,1.60
2023-01-31T14:09:43.217Z,1.67
2023-01-31T14:12:35.776Z,1.60
2023-01-31T14:15:48.457Z,1.23
2023-01-31T14:18:41.478Z,1.20
2023-01-31T14:21:54.833Z,1.60
2023-01-31T14:25:07.004Z,1.45
2023-01-31T14:28:04.539Z,1.48
2023-01-31T14:30:48.705Z,1.73
2023-01-31T14:33:31.472Z,1.60
2023-01-31T14:36:42.166Z,1.83
2023-01-31T14:39:44.173Z,1.80
2023-01-31T14:42:37.919Z,1.55
2023-01-31T14:45:28.743Z,1.67
2023-01-31T14:48:30.857Z,1.60
2023-01-31T14:51:20.850Z,1.52
2023-01-31T14:54:16.920Z,1.67
2023-01-31T14:57:12.486Z,1.60
2023-01-31T14:59:56.970Z,1.33
2023-01-31T15:02:45.883Z,1.23
2023-01-31T15:05:42.575Z,0.85
2023-01-31T15:08:37.158Z,0.90
2023-01-31T15:11:42.382Z,1.10
2023-01-31T15:14:35.821Z,1.38
2023-01-31T15:17:34.444Z,1.50
2023-01-31T15:20:19.341Z,1.77
2023-01-31T15:23:05.940Z,1.60
2023-01-31T15:25:49.795Z,1.65
2023-01-31T15:28:35.046Z,2.28
2023-01-31T15:31:19.399Z,1.77
2023-01-31T15:34:04.130Z,2.28
2023-01-31T15:36:48.379Z,2.45
2023-01-31T15:39:35.389Z,1.95
2023-01-31T15:42:22.507Z,2.70
2023-01-31T15:45:24.454Z,2.05
2023-01-31T15:48:09.761Z,2.58
2023-01-31T15:50:53.817Z,2.40
2023-01-31T15:53:36.536Z,2.03
2023-01-31T15:56:23.064Z,2.88
2023-01-31T15:59:07.666Z,2.60
2023-01-31T16:01:51.395Z,2.42
2023-01-31T16:04:34.140Z,2.05
2023-01-31T16:07:18.201Z,2.00
2023-01-31T16:10:02.926Z,2.30
2023-01-31T16:12:49.013Z,2.10
2023-01-31T16:15:32.264Z,1.90
2023-01-31T16:18:15.377Z,1.80
2023-01-31T16:20:58.192Z,1.00
2023-01-31T16:23:41.020Z,0.73
2023-01-31T16:26:25.565Z,0.73
2023-01-31T16:29:11.167Z,0.77
2023-01-31T16:31:55.238Z,0.73
2023-01-31T16:34:38.023Z,0.70
2023-01-31T16:37:29.553Z,0.70
2023-01-31T16:40:20.633Z,0.93
2023-01-31T16:43:11.228Z,1.05
2023-01-31T16:45:56.708Z,1.20
2023-01-31T16:48:40.456Z,1.13
2023-01-31T16:51:38.010Z,1.10
2023-01-31T16:54:24.530Z,1.30
2023-01-31T16:57:16.773Z,1.10
2023-01-31T16:59:59.572Z,1.58
2023-01-31T17:02:44.174Z,1.35
2023-01-31T17:05:29.232Z,1.58
2023-01-31T17:08:15.330Z,1.60
2023-01-31T17:10:57.994Z,1.70
2023-01-31T17:13:40.729Z,1.70
2023-01-31T17:16:25.573Z,1.80
2023-01-31T17:19:09.625Z,1.80
2023-01-31T17:21:52.379Z,1.88
2023-01-31T17:24:35.044Z,1.83
2023-01-31T17:27:18.782Z,2.03
2023-01-31T17:30:01.509Z,2.20
2023-01-31T17:32:44.306Z,1.90
2023-01-31T17:35:29.993Z,1.85
2023-01-31T17:38:12.724Z,2.30
2023-01-31T17:40:55.447Z,1.92
2023-01-31T17:43:38.166Z,1.67
2023-01-31T17:46:21.414Z,1.67
2023-01-31T17:49:04.204Z,2.20
2023-01-31T17:51:48.341Z,2.60
2023-01-31T17:54:31.243Z,2.13
2023-01-31T17:57:13.886Z,2.65
2023-01-31T17:59:56.586Z,2.80
2023-01-31T18:02:41.982Z,2.25
2023-01-31T18:05:38.230Z,2.35
2023-01-31T18:08:23.443Z,2.50
2023-01-31T18:11:06.600Z,3.20
2023-01-31T18:13:49.389Z,2.35
2023-01-31T18:16:32.420Z,2.53
2023-01-31T18:19:15.128Z,2.85
2023-01-31T18:21:59.565Z,3.08
2023-01-31T18:24:44.749Z,2.78
2023-01-31T18:27:27.496Z,3.00
2023-01-31T18:30:11.005Z,2.47
2023-01-31T18:32:53.854Z,2.47
2023-01-31T18:35:36.631Z,2.45
2023-01-31T18:38:19.352Z,2.55
2023-01-31T18:41:06.591Z,2.28
2023-01-31T18:43:49.911Z,2.65
2023-01-31T18:46:32.762Z,3.10
2023-01-31T18:49:15.697Z,2.63
2023-01-31T18:51:58.563Z,2.08
2023-01-31T18:54:41.468Z,2.20
2023-01-31T18:57:25.628Z,2.85
2023-01-31T19:00:09.232Z,2.58
2023-01-31T19:02:52.078Z,2.75
2023-01-31T19:05:37.732Z,2.30
2023-01-31T19:08:20.445Z,2.65
2023-01-31T19:11:07.220Z,3.45
2023-01-31T19:13:51.308Z,2.80
2023-01-31T19:16:36.813Z,2.55
2023-01-31T19:19:20.889Z,2.75
2023-01-31T19:22:03.816Z,2.88
2023-01-31T19:24:46.671Z,2.80
2023-01-31T19:27:29.370Z,2.35
2023-01-31T19:30:14.764Z,2.55
2023-01-31T19:32:57.779Z,2.63
2023-01-31T19:35:40.687Z,2.83
2023-01-31T19:38:23.803Z,2.75
2023-01-31T19:41:07.356Z,2.70
2023-01-31T19:43:50.587Z,2.90
2023-01-31T19:46:35.843Z,2.63
2023-01-31T19:49:18.772Z,2.63
2023-01-31T19:52:01.585Z,2.60
2023-01-31T19:54:44.458Z,2.53
2023-01-31T19:57:27.206Z,2.67
2023-01-31T20:00:12.611Z,2.42
2023-01-31T20:02:57.173Z,2.65
2023-01-31T20:05:40.934Z,2.60
2023-01-31T20:08:25.051Z,2.00
2023-01-31T20:11:08.669Z,2.85
2023-01-31T20:13:51.991Z,2.95
2023-01-31T20:16:35.004Z,2.22
2023-01-31T20:19:21.117Z,2.75
2023-01-31T20:22:04.028Z,2.63
2023-01-31T20:24:46.964Z,2.97
2023-01-31T20:27:33.815Z,3.10
2023-01-31T20:30:20.064Z,2.75
2023-01-31T20:33:03.432Z,2.88
2023-01-31T20:35:47.984Z,3.08
2023-01-31T20:38:31.168Z,2.78
2023-01-31T20:41:15.064Z,2.90
2023-01-31T20:43:57.954Z,2.40
2023-01-31T20:46:40.695Z,2.90
2023-01-31T20:49:23.984Z,2.67
2023-01-31T20:52:08.137Z,3.05
2023-01-31T20:54:51.033Z,2.90
2023-01-31T20:57:33.940Z,2.50
2023-01-31T21:00:17.509Z,2.80
2023-01-31T21:03:00.224Z,3.03
2023-01-31T21:05:42.941Z,2.20
2023-01-31T21:08:27.251Z,2.95
2023-01-31T21:11:10.711Z,2.75
2023-01-31T21:13:53.440Z,2.33
2023-01-31T21:16:36.136Z,2.70
2023-01-31T21:19:18.966Z,2.40
2023-01-31T21:22:01.683Z,2.75
2023-01-31T21:24:45.704Z,2.42
2023-01-31T21:27:28.456Z,2.78
2023-01-31T21:30:11.955Z,2.28
2023-01-31T21:32:54.691Z,2.55
2023-01-31T21:35:37.584Z,2.50
2023-01-31T21:38:21.012Z,2.13
2023-01-31T21:41:22.897Z,2.08
2023-01-31T21:44:05.724Z,1.77
2023-01-31T21:46:49.568Z,1.77
2023-01-31T21:49:32.252Z,1.92
2023-01-31T21:52:15.029Z,2.00
2023-01-31T21:54:57.658Z,1.70
2023-01-31T21:57:41.706Z,2.28
2023-01-31T22:00:24.525Z,1.90
2023-01-31T22:03:07.255Z,2.00
2023-01-31T22:05:49.944Z,2.08
2023-01-31T22:08:32.815Z,2.20
2023-01-31T22:11:15.748Z,2.05
2023-01-31T22:14:00.478Z,2.45
2023-01-31T22:16:43.222Z,1.45
2023-01-31T22:19:25.923Z,1.98
2023-01-31T22:22:08.674Z,2.10
2023-01-31T22:24:51.335Z,2.30
2023-01-31T22:27:34.010Z,2.17
2023-01-31T22:30:18.279Z,2.58
2023-01-31T22:33:00.985Z,2.80
2023-01-31T22:35:43.693Z,2.38
2023-01-31T22:38:26.632Z,2.40
2023-01-31T22:41:10.461Z,2.30
2023-01-31T22:43:53.465Z,2.42
2023-01-31T22:46:37.558Z,1.88
2023-01-31T22:49:20.371Z,1.90
2023-01-31T22:52:05.313Z,1.67
2023-01-31T22:54:48.032Z,2.10
2023-01-31T22:57:30.747Z,1.75
2023-01-31T23:00:13.840Z,2.55
2023-01-31T23:02:58.106Z,2.03
2023-01-31T23:05:41.128Z,1.83
2023-01-31T23:08:26.740Z,1.40
2023-01-31T23:11:10.450Z,2.13
2023-01-31T23:13:53.182Z,1.40
2023-01-31T23:16:53.389Z,2.00
2023-01-31T23:19:37.886Z,2.55
2023-01-31T23:22:20.552Z,2.40
2023-01-31T23:25:03.278Z,2.55
2023-01-31T23:27:46.111Z,1.80
2023-01-31T23:30:28.792Z,2.70
2023-01-31T23:33:11.486Z,2.08
2023-01-31T23:35:55.559Z,2.28
2023-01-31T23:38:38.464Z,2.53
2023-01-31T23:41:21.099Z,2.65
2023-01-31T23:44:03.909Z,2.40
2023-01-31T23:46:46.712Z,2.42
2023-01-31T23:49:29.357Z,2.10
2023-01-31T23:52:13.453Z,2.10
2023-01-31T23:54:56.105Z,2.03
2023-01-31T23:57:38.874Z,1.77
